Share

Arjay, KY

liford's (KKYBARBO2) Elev 1066 ft | 36.84 °N, 83.85 °W | Change Station

Current weather conditions updated 14 minutes ago

Clear
Clear
45.3 °F
Feels Like 45 °F
N
0.0
Wind Variable Wind from East
Sunrise 6:52 AM
Sunset 8:14 PM
Moon Waning Gibbous

Today is forecast to be Cooler than yesterday. A few showers developing late tonight.

Pressure 30.15 in
Visibility 10.0 miles
Clouds Clear
Windchill 45 °F
Dew Point 43 °F
Humidity 92%
Rainfall 0.00 in
Snow Depth Not available.
UV 0 out of 16
Pollen 10.30 out of 12
Air Quality Not available.
Flu Activity Sporadic
METAR KI35 211015Z AUTO 00000KT 10SM CLR 07/02 A3015 RMK AO1

More Conditions Fewer Conditions

Pressure 30.15 in
Visibility 10.0 miles
Clouds Clear
Windchill 45 °F
Dew Point 43 °F
Humidity 92%
Rainfall 0.00 in
Snow Depth Not available.
UV 0 out of 16
Pollen 10.30 out of 12
Air Quality Not available.
Flu Activity Sporadic
METAR KI35 211015Z AUTO 00000KT 10SM CLR 07/02 A3015 RMK AO1

More Conditions Fewer Conditions

10-Day Weather Forecast

Almanac

Astronomy

Apr. 21, 2014 Rise Set
Actual Time 6:52 AM EDT 8:14 PM EDT
Civil Twilight 6:25 AM EDT 8:41 PM EDT
Nautical Twilight 5:53 AM EDT 9:14 PM EDT
Astronomical Twilight 5:19 AM EDT 9:48 PM EDT
Moon 1:41 AM EDT 12:20 PM EDT
Length of Visible Light 14h 16m
Length of Day
13h 21m
Tomorrow will be 2m 9s longer.
Waning Gibbous, 60% of the Moon is Illuminated
Today
Waning Gibbous
Apr 22
Last Quarter
Apr 29
New
May 6
First Quarter
May 14
Full

Today's Extremes

State Highs State Lows

Community

  • Snowy Robin
    Snowy Robin
  • Sun Pillar and Geese
    Sun Pillar and Geese
  • Showers on the Way
    Showers on the Way
  • Easter Morning Fog
    Easter Morning Fog
  • Easter Dance
    Easter Dance

WunderPhotos

Upload Photos

1,703,587 photos uploaded!

WunderBlogs® & News

Nearby

Snow Depth

Station Depth Elevation
No new snow has been reported.

Coastal Water Temperatures

Place Temperature
No Stations Reporting

Earthquake Activity

City Distance Mag. Time & Date
No recent earthquake activity has been reported nearby.
Minimum magnitude displayed is 2.5.

Nearby Weather Stations

Station Location Temp. Windchill Dew Point Humidity Wind Precip. Elev Updated Type
liford's, Barbourville, KY 45.3 °F 45 °F 43 °F 92% East  at  0.0 mph - / hr 1066 ft 6:16 AM EDT Normal
Colmar, Middlesboro, KY 41.3 °F 41 °F 40 °F 93% SE  at  0.0 mph - / hr 1135 ft 6:28 AM EDT Normal
RAWS YELLOW CREEK KY, Middlesboro, KY 44 °F 44 °F 40 °F 87% North  at  0 mph 0.00 in / hr 1089 ft 5:26 AM EDT MADIS
Mackey Bend, Barbourville, KY 42.3 °F 42 °F 40 °F 91% NE  at  0.0 mph - / hr 981 ft 6:27 AM EDT Normal
White Rocks View, Rose Hill, VA 39.6 °F 40 °F 37 °F 89% North  at  2.0 mph 0.00 in / hr 1470 ft 6:30 AM EDT Rapid Fire

Show More Stations Show Fewer Stations

What do you think?

We're not finished. Please let us know what you like, what you don't like, and what you are still missing.